createdAt,value
2022-09-13T00:01:15.645Z,68.30
2022-09-13T00:03:43.377Z,68.22
2022-09-13T00:06:13.111Z,68.27
2022-09-13T00:08:41.221Z,68.32
2022-09-13T00:11:17.591Z,68.28
2022-09-13T00:13:45.682Z,68.36
2022-09-13T00:16:14.569Z,68.33
2022-09-13T00:18:42.949Z,68.42
2022-09-13T00:21:12.564Z,68.29
2022-09-13T00:23:41.459Z,68.25
2022-09-13T00:26:12.588Z,68.22
2022-09-13T00:28:40.791Z,68.28
2022-09-13T00:31:10.542Z,68.41
2022-09-13T00:33:38.765Z,68.60
2022-09-13T00:36:07.502Z,68.50
2022-09-13T00:38:36.851Z,68.41
2022-09-13T00:41:05.290Z,68.27
2022-09-13T00:43:46.924Z,68.35
2022-09-13T00:46:21.615Z,68.29
2022-09-13T00:48:52.063Z,68.26
2022-09-13T00:51:20.053Z,68.79
2022-09-13T00:53:52.069Z,68.51
2022-09-13T00:56:24.005Z,68.81
2022-09-13T00:58:58.955Z,68.93
2022-09-13T01:01:32.433Z,68.98
2022-09-13T01:04:01.618Z,68.59
2022-09-13T01:06:33.406Z,68.93
2022-09-13T01:09:04.349Z,68.79
2022-09-13T01:11:41.884Z,68.88
2022-09-13T01:14:11.395Z,69.07
2022-09-13T01:16:39.303Z,68.99
2022-09-13T01:19:07.028Z,68.90
2022-09-13T01:22:10.458Z,69.41
2022-09-13T01:24:58.083Z,69.15
2022-09-13T01:27:53.924Z,70.13
2022-09-13T01:30:23.990Z,69.60
2022-09-13T01:33:23.001Z,70.04
2022-09-13T01:36:14.522Z,69.76
2022-09-13T01:38:57.850Z,69.39
2022-09-13T01:41:50.671Z,69.77
2022-09-13T01:44:30.755Z,69.78
2022-09-13T01:47:07.610Z,69.75
2022-09-13T01:49:44.331Z,69.50
2022-09-13T01:52:22.745Z,69.43
2022-09-13T01:54:59.064Z,69.64
2022-09-13T01:57:34.086Z,69.91
2022-09-13T02:00:07.661Z,69.60
2022-09-13T02:02:42.197Z,69.47
2022-09-13T02:05:16.649Z,69.74
2022-09-13T02:07:47.757Z,69.82
2022-09-13T02:10:22.475Z,69.79
2022-09-13T02:12:53.836Z,69.71
2022-09-13T02:15:26.270Z,69.89
2022-09-13T02:18:03.428Z,70.18
2022-09-13T02:20:35.963Z,69.95
2022-09-13T02:23:10.793Z,70.22
2022-09-13T02:25:41.277Z,70.36
2022-09-13T02:28:16.236Z,70.19
2022-09-13T02:30:48.642Z,70.24
2022-09-13T02:33:23.284Z,70.28
2022-09-13T02:35:55.976Z,70.61
2022-09-13T02:38:29.394Z,70.59
2022-09-13T02:41:01.590Z,70.55
2022-09-13T02:43:35.804Z,70.57
2022-09-13T02:46:15.119Z,70.39
2022-09-13T02:48:53.679Z,70.80
2022-09-13T02:51:31.324Z,70.36
2022-09-13T02:54:10.780Z,70.47
2022-09-13T02:56:49.888Z,70.58
2022-09-13T02:59:20.531Z,70.62
2022-09-13T03:01:51.993Z,70.46
2022-09-13T03:04:21.482Z,70.55
2022-09-13T03:06:50.998Z,70.45
2022-09-13T03:09:19.576Z,70.40
2022-09-13T03:12:23.259Z,70.62
2022-09-13T03:14:57.907Z,70.27
2022-09-13T03:17:40.507Z,70.16
2022-09-13T03:20:13.834Z,70.75
2022-09-13T03:23:12.380Z,70.93
2022-09-13T03:25:57.833Z,71.24
2022-09-13T03:28:35.954Z,72.15
2022-09-13T03:31:08.773Z,72.97
2022-09-13T03:33:48.015Z,72.45
2022-09-13T03:36:22.879Z,73.09
2022-09-13T03:38:59.447Z,73.12
2022-09-13T03:41:32.733Z,73.14
2022-09-13T03:44:02.801Z,73.17
2022-09-13T03:46:34.933Z,73.47
2022-09-13T03:49:05.254Z,73.85
2022-09-13T03:51:34.840Z,74.07
2022-09-13T03:54:06.127Z,74.23
2022-09-13T03:56:34.073Z,74.30
2022-09-13T03:59:02.304Z,74.19
2022-09-13T04:01:31.160Z,74.21
2022-09-13T04:03:59.064Z,74.23
2022-09-13T04:06:26.836Z,74.04
2022-09-13T04:08:56.055Z,73.94
2022-09-13T04:11:24.246Z,74.23
2022-09-13T04:13:52.413Z,74.30
2022-09-13T04:16:20.234Z,74.39
2022-09-13T04:18:48.043Z,74.67
2022-09-13T04:21:16.733Z,74.73
2022-09-13T04:23:44.529Z,74.82
2022-09-13T04:26:13.705Z,74.77
2022-09-13T04:28:41.518Z,75.06
2022-09-13T04:31:09.417Z,75.61
2022-09-13T04:33:37.426Z,75.53
2022-09-13T04:36:05.462Z,75.74
2022-09-13T04:38:33.269Z,75.85
2022-09-13T04:41:01.008Z,75.75
2022-09-13T04:43:30.684Z,75.41
2022-09-13T04:46:01.018Z,75.53
2022-09-13T04:48:29.609Z,75.58
2022-09-13T04:51:02.987Z,75.40
2022-09-13T04:53:30.722Z,75.57
2022-09-13T04:56:02.654Z,75.32
2022-09-13T04:58:32.316Z,75.38
2022-09-13T05:01:02.791Z,75.34
2022-09-13T05:03:31.358Z,75.09
2022-09-13T05:06:03.763Z,74.96
2022-09-13T05:08:31.789Z,75.24
2022-09-13T05:10:59.632Z,75.33
2022-09-13T05:13:27.782Z,75.22
2022-09-13T05:16:01.093Z,75.30
2022-09-13T05:18:29.945Z,75.30
2022-09-13T05:20:58.415Z,75.36
2022-09-13T05:23:27.552Z,75.54
2022-09-13T05:25:55.536Z,75.81
2022-09-13T05:28:23.324Z,75.80
2022-09-13T05:31:00.285Z,75.79
2022-09-13T05:33:29.564Z,76.06
2022-09-13T05:35:57.851Z,76.54
2022-09-13T05:38:25.851Z,76.13
2022-09-13T05:40:56.378Z,76.25
2022-09-13T05:43:26.378Z,76.14
2022-09-13T05:46:03.577Z,76.40
2022-09-13T05:48:32.169Z,76.47
2022-09-13T05:51:07.011Z,76.47
2022-09-13T05:53:35.037Z,76.78
2022-09-13T05:56:03.917Z,76.75
2022-09-13T05:58:31.661Z,76.68
2022-09-13T06:00:59.513Z,76.94
2022-09-13T06:03:28.694Z,76.48
2022-09-13T06:05:57.510Z,76.79
2022-09-13T06:08:25.694Z,76.88
2022-09-13T06:10:58.172Z,76.69
2022-09-13T06:13:27.565Z,76.93
2022-09-13T06:15:56.680Z,76.95
2022-09-13T06:18:26.092Z,76.82
2022-09-13T06:20:59.301Z,76.78
2022-09-13T06:23:27.709Z,76.86
2022-09-13T06:26:02.821Z,76.83
2022-09-13T06:28:33.239Z,76.87
2022-09-13T06:31:06.749Z,76.92
2022-09-13T06:33:34.897Z,77.34
2022-09-13T06:36:06.061Z,77.12
2022-09-13T06:38:34.293Z,77.31
2022-09-13T06:41:04.555Z,77.56
2022-09-13T06:43:32.772Z,77.22
2022-09-13T06:46:02.260Z,77.17
2022-09-13T06:48:32.683Z,77.14
2022-09-13T06:51:01.831Z,77.43
2022-09-13T06:53:31.318Z,77.38
2022-09-13T06:56:03.434Z,77.26
2022-09-13T06:58:32.559Z,77.07
2022-09-13T07:01:10.790Z,77.24
2022-09-13T07:03:39.254Z,77.26
2022-09-13T07:06:12.121Z,77.06
2022-09-13T07:08:42.160Z,76.96
2022-09-13T07:11:10.579Z,77.01
2022-09-13T07:13:38.645Z,76.99
2022-09-13T07:16:09.063Z,76.74
2022-09-13T07:18:37.787Z,76.89
2022-09-13T07:21:07.955Z,75.81
2022-09-13T07:23:38.504Z,75.74
2022-09-13T07:26:08.838Z,75.64
2022-09-13T07:28:38.132Z,75.71
2022-09-13T07:31:08.164Z,75.71
2022-09-13T07:33:36.601Z,75.39
2022-09-13T07:36:06.646Z,75.29
2022-09-13T07:38:42.054Z,74.75
2022-09-13T07:41:14.687Z,75.11
2022-09-13T07:43:42.621Z,74.72
2022-09-13T07:46:12.345Z,73.76
2022-09-13T07:48:42.163Z,73.86
2022-09-13T07:51:12.008Z,74.03
2022-09-13T07:53:41.658Z,74.29
2022-09-13T07:56:12.893Z,74.41
2022-09-13T07:58:43.759Z,74.49
2022-09-13T08:01:14.635Z,73.86
2022-09-13T08:03:42.766Z,73.78
2022-09-13T08:06:10.770Z,73.54
2022-09-13T08:08:40.408Z,73.26
2022-09-13T08:11:08.362Z,72.06
2022-09-13T08:13:37.599Z,71.44
2022-09-13T08:16:06.837Z,71.44
2022-09-13T08:18:34.973Z,70.72
2022-09-13T08:21:03.118Z,70.11
2022-09-13T08:23:31.238Z,69.96
2022-09-13T08:26:02.644Z,69.02
2022-09-13T08:28:31.589Z,69.48
2022-09-13T08:31:06.472Z,69.46
2022-09-13T08:33:34.682Z,69.01
2022-09-13T08:36:03.286Z,68.98
2022-09-13T08:38:32.210Z,68.77
2022-09-13T08:41:03.347Z,68.24
2022-09-13T08:43:43.751Z,67.50
2022-09-13T08:46:24.897Z,67.73
2022-09-13T08:48:56.962Z,67.24
2022-09-13T08:51:38.725Z,65.40
2022-09-13T08:54:07.496Z,65.93
2022-09-13T08:56:42.779Z,65.01
2022-09-13T08:59:34.362Z,64.76
2022-09-13T09:02:21.764Z,64.54
2022-09-13T09:04:57.757Z,61.38
2022-09-13T09:07:29.188Z,62.47
2022-09-13T09:10:00.870Z,63.59
2022-09-13T09:12:35.400Z,63.84
2022-09-13T09:15:09.754Z,63.45
2022-09-13T09:17:47.651Z,61.69
2022-09-13T09:20:25.576Z,60.97
2022-09-13T09:22:55.150Z,62.04
2022-09-13T09:25:25.153Z,61.83
2022-09-13T09:27:53.668Z,59.85
2022-09-13T09:30:22.351Z,60.00
2022-09-13T09:33:28.326Z,59.86
2022-09-13T09:36:05.655Z,59.60
2022-09-13T09:38:37.727Z,59.91
2022-09-13T09:41:09.235Z,60.02
2022-09-13T09:43:47.656Z,59.19
2022-09-13T09:46:22.040Z,59.75
2022-09-13T09:48:56.655Z,59.04
2022-09-13T09:51:29.125Z,58.25
2022-09-13T09:54:05.179Z,58.13
2022-09-13T09:56:35.722Z,58.06
2022-09-13T09:59:03.554Z,58.25
2022-09-13T10:01:33.342Z,57.97
2022-09-13T10:04:09.672Z,56.79
2022-09-13T10:06:39.786Z,57.40
2022-09-13T10:09:16.087Z,57.62
2022-09-13T10:11:46.895Z,56.35
2022-09-13T10:14:42.750Z,55.23
2022-09-13T10:17:18.368Z,55.36
2022-09-13T10:19:56.340Z,56.21
2022-09-13T10:22:24.312Z,56.27
2022-09-13T10:24:52.050Z,56.27
2022-09-13T10:27:23.905Z,56.02
2022-09-13T10:29:55.342Z,56.38
2022-09-13T10:32:23.729Z,55.51
2022-09-13T10:34:52.505Z,54.98
2022-09-13T10:37:24.043Z,55.67
2022-09-13T10:39:58.229Z,55.52
2022-09-13T10:42:28.802Z,55.86
2022-09-13T10:44:59.210Z,56.12
2022-09-13T10:47:31.224Z,55.33
2022-09-13T10:50:00.377Z,56.13
2022-09-13T10:52:32.826Z,55.96
2022-09-13T10:55:33.819Z,55.43
2022-09-13T10:58:22.732Z,54.68
2022-09-13T11:01:22.148Z,54.38
2022-09-13T11:04:17.039Z,54.12
2022-09-13T11:06:58.481Z,54.69
2022-09-13T11:09:36.998Z,54.13
2022-09-13T11:12:14.352Z,53.02
2022-09-13T11:14:57.638Z,51.65
2022-09-13T11:17:51.739Z,52.38
2022-09-13T11:20:32.446Z,53.57
2022-09-13T11:23:23.070Z,52.51
2022-09-13T11:26:04.475Z,52.26
2022-09-13T11:28:41.930Z,52.06
2022-09-13T11:31:30.607Z,51.54
2022-09-13T11:34:14.287Z,52.09
2022-09-13T11:36:54.282Z,50.40
2022-09-13T11:39:32.200Z,51.88
2022-09-13T11:42:12.080Z,51.87
2022-09-13T11:44:57.165Z,51.71
2022-09-13T11:47:34.665Z,51.42
2022-09-13T11:50:19.347Z,51.15
2022-09-13T11:52:58.935Z,51.61
2022-09-13T11:55:30.937Z,51.74
2022-09-13T11:58:04.921Z,50.60
2022-09-13T12:00:41.393Z,51.28
2022-09-13T12:03:16.673Z,49.68
2022-09-13T12:05:50.052Z,51.32
2022-09-13T12:08:21.661Z,51.06
2022-09-13T12:10:53.954Z,50.97
2022-09-13T12:13:26.440Z,50.71
2022-09-13T12:15:58.604Z,51.44
2022-09-13T12:18:30.835Z,50.60
2022-09-13T12:21:07.327Z,49.92
2022-09-13T12:23:39.950Z,49.57
2022-09-13T12:26:12.792Z,49.38
2022-09-13T12:28:46.114Z,50.51
2022-09-13T12:31:19.656Z,50.75
2022-09-13T12:33:49.094Z,51.23
2022-09-13T12:36:38.881Z,50.37
2022-09-13T12:39:32.263Z,50.92
2022-09-13T12:42:23.540Z,50.88
2022-09-13T12:45:08.444Z,49.09
2022-09-13T12:47:54.432Z,49.11
2022-09-13T12:50:44.211Z,49.17
2022-09-13T12:53:30.362Z,49.80
2022-09-13T12:56:31.939Z,49.50
2022-09-13T12:59:22.901Z,49.50
2022-09-13T13:01:52.916Z,50.32
2022-09-13T13:04:25.302Z,50.82
2022-09-13T13:06:56.885Z,50.46
2022-09-13T13:09:38.405Z,50.31
2022-09-13T13:12:06.597Z,49.90
2022-09-13T13:14:53.388Z,48.41
2022-09-13T13:17:45.727Z,48.69
2022-09-13T13:20:42.728Z,49.66
2022-09-13T13:23:23.514Z,49.43
2022-09-13T13:26:01.401Z,47.24
2022-09-13T13:29:06.033Z,48.13
2022-09-13T13:31:39.459Z,48.61
2022-09-13T13:34:32.463Z,48.62
2022-09-13T13:37:04.277Z,48.53
2022-09-13T13:39:43.321Z,48.17
2022-09-13T13:42:26.267Z,48.43
2022-09-13T13:45:26.171Z,47.35
2022-09-13T13:48:10.905Z,48.65
2022-09-13T13:51:10.936Z,47.46
2022-09-13T13:53:42.325Z,47.36
2022-09-13T13:56:20.946Z,46.96
2022-09-13T13:58:53.372Z,47.41
2022-09-13T14:01:25.877Z,45.64
2022-09-13T14:04:29.705Z,45.86
2022-09-13T14:07:18.947Z,46.34
2022-09-13T14:09:55.718Z,46.61
2022-09-13T14:12:36.157Z,46.82
2022-09-13T14:15:17.386Z,45.93
2022-09-13T14:18:03.469Z,46.12
2022-09-13T14:20:31.292Z,46.57
2022-09-13T14:23:18.494Z,46.88
2022-09-13T14:25:54.602Z,47.16
2022-09-13T14:28:24.105Z,47.83
2022-09-13T14:30:55.620Z,47.63
2022-09-13T14:33:30.894Z,47.48
2022-09-13T14:36:05.548Z,47.74
2022-09-13T14:38:35.678Z,47.99
2022-09-13T14:41:15.250Z,47.70
2022-09-13T14:43:43.820Z,47.90
2022-09-13T14:46:17.575Z,47.85
2022-09-13T14:48:51.737Z,48.01
2022-09-13T14:51:24.918Z,47.82
2022-09-13T14:53:55.589Z,47.93
2022-09-13T14:56:34.006Z,48.42
2022-09-13T14:59:06.784Z,48.68
2022-09-13T15:01:37.096Z,48.95
2022-09-13T15:04:07.549Z,49.77
2022-09-13T15:06:39.098Z,48.73
2022-09-13T15:09:27.080Z,48.91
2022-09-13T15:12:01.132Z,49.20
2022-09-13T15:14:32.198Z,49.24
2022-09-13T15:17:08.039Z,49.33
2022-09-13T15:19:41.798Z,49.83
2022-09-13T15:22:17.190Z,50.01
2022-09-13T15:24:48.641Z,50.05
2022-09-13T15:27:22.159Z,50.97
2022-09-13T15:29:51.771Z,51.55
2022-09-13T15:32:25.759Z,51.91
2022-09-13T15:34:53.636Z,52.35
2022-09-13T15:37:31.254Z,52.12
2022-09-13T15:40:21.146Z,52.21
2022-09-13T15:42:52.575Z,52.85
2022-09-13T15:45:22.568Z,52.51
2022-09-13T15:47:52.231Z,52.96
2022-09-13T15:50:23.053Z,52.92
2022-09-13T15:52:50.952Z,53.28
2022-09-13T15:55:18.815Z,53.58
2022-09-13T15:57:47.681Z,53.88
2022-09-13T16:00:20.343Z,54.06
2022-09-13T16:02:48.262Z,54.37
2022-09-13T16:05:16.429Z,54.63
2022-09-13T16:07:45.099Z,54.57
2022-09-13T16:10:15.521Z,54.89
2022-09-13T16:12:43.425Z,55.38
2022-09-13T16:15:12.750Z,55.55
2022-09-13T16:17:42.463Z,55.72
2022-09-13T16:20:13.991Z,56.18
2022-09-13T16:22:42.517Z,56.33
2022-09-13T16:25:13.192Z,56.77
2022-09-13T16:27:41.583Z,56.75
2022-09-13T16:30:12.617Z,57.38
2022-09-13T16:32:42.446Z,57.24
2022-09-13T16:35:11.433Z,56.98
2022-09-13T16:37:39.851Z,57.54
2022-09-13T16:40:09.433Z,57.70
2022-09-13T16:42:37.541Z,57.93
2022-09-13T16:45:06.180Z,58.71
2022-09-13T16:47:34.068Z,58.75
2022-09-13T16:50:03.684Z,58.87
2022-09-13T16:52:31.559Z,59.20
2022-09-13T16:54:59.528Z,59.09
2022-09-13T16:57:27.708Z,59.18
2022-09-13T16:59:58.434Z,59.15
2022-09-13T17:02:27.185Z,59.41
2022-09-13T17:04:55.704Z,59.70
2022-09-13T17:07:24.925Z,59.50
2022-09-13T17:09:52.787Z,60.07
2022-09-13T17:12:20.861Z,59.94
2022-09-13T17:14:50.622Z,60.17
2022-09-13T17:17:19.270Z,60.22
2022-09-13T17:19:47.630Z,60.70
2022-09-13T17:22:16.502Z,60.67
2022-09-13T17:24:46.176Z,60.92
2022-09-13T17:27:13.969Z,60.85
2022-09-13T17:29:42.032Z,61.04
2022-09-13T17:32:10.112Z,61.22
2022-09-13T17:34:38.351Z,61.49
2022-09-13T17:37:07.283Z,61.65
2022-09-13T17:39:35.323Z,61.22
2022-09-13T17:42:05.154Z,61.68
2022-09-13T17:44:32.869Z,61.59
2022-09-13T17:47:02.362Z,61.77
2022-09-13T17:49:30.280Z,62.10
2022-09-13T17:51:58.213Z,62.29
2022-09-13T17:54:26.632Z,62.31
2022-09-13T17:56:54.449Z,62.46
2022-09-13T17:59:23.973Z,62.39
2022-09-13T18:01:54.170Z,62.34
2022-09-13T18:04:24.160Z,62.45
2022-09-13T18:06:52.477Z,62.50
2022-09-13T18:09:21.191Z,62.85
2022-09-13T18:11:49.054Z,62.83
2022-09-13T18:14:18.984Z,62.86
2022-09-13T18:16:55.406Z,62.82
2022-09-13T18:19:44.277Z,62.89
2022-09-13T18:22:11.774Z,63.16
2022-09-13T18:24:39.981Z,63.21
2022-09-13T18:27:07.848Z,63.41
2022-09-13T18:29:35.686Z,63.31
2022-09-13T18:32:05.223Z,63.59
2022-09-13T18:34:33.442Z,64.01
2022-09-13T18:37:01.248Z,64.16
2022-09-13T18:39:29.008Z,64.06
2022-09-13T18:41:56.806Z,63.88
2022-09-13T18:44:24.659Z,63.45
2022-09-13T18:46:54.158Z,63.61
2022-09-13T18:49:23.622Z,63.97
2022-09-13T18:51:51.587Z,64.25
2022-09-13T18:54:20.096Z,64.58
2022-09-13T18:56:48.760Z,64.93
2022-09-13T18:59:16.695Z,64.83
2022-09-13T19:01:45.973Z,65.06
2022-09-13T19:04:15.631Z,65.08
2022-09-13T19:06:46.514Z,65.19
2022-09-13T19:09:16.899Z,65.31
2022-09-13T19:11:48.510Z,65.20
2022-09-13T19:14:19.010Z,65.48
2022-09-13T19:16:47.321Z,65.62
2022-09-13T19:19:15.800Z,65.10
2022-09-13T19:21:45.399Z,65.14
2022-09-13T19:24:18.136Z,64.51
2022-09-13T19:26:48.643Z,64.08
2022-09-13T19:29:19.709Z,63.83
2022-09-13T19:31:49.824Z,63.38
2022-09-13T19:34:19.286Z,63.10
2022-09-13T19:36:50.493Z,63.01
2022-09-13T19:39:19.549Z,62.66
2022-09-13T19:41:47.417Z,62.83
2022-09-13T19:44:15.925Z,62.85
2022-09-13T19:46:44.334Z,62.33
2022-09-13T19:49:14.795Z,60.18
2022-09-13T19:51:48.792Z,60.15
2022-09-13T19:54:20.682Z,60.28
2022-09-13T19:56:50.137Z,59.92
2022-09-13T19:59:20.914Z,59.89
2022-09-13T20:01:49.346Z,58.92
2022-09-13T20:04:18.876Z,59.23
2022-09-13T20:06:48.848Z,59.79
2022-09-13T20:09:18.486Z,59.53
2022-09-13T20:11:48.796Z,59.71
2022-09-13T20:14:18.385Z,60.24
2022-09-13T20:16:46.657Z,60.42
2022-09-13T20:19:39.417Z,59.84
2022-09-13T20:22:06.874Z,60.54
2022-09-13T20:24:35.066Z,61.25
2022-09-13T20:27:04.601Z,60.51
2022-09-13T20:29:32.868Z,60.05
2022-09-13T20:32:02.216Z,60.26
2022-09-13T20:34:30.144Z,59.92
2022-09-13T20:36:57.982Z,60.33
2022-09-13T20:39:25.717Z,60.27
2022-09-13T20:41:54.675Z,60.55
2022-09-13T20:44:23.947Z,60.57
2022-09-13T20:46:52.036Z,60.36
2022-09-13T20:49:19.803Z,60.11
2022-09-13T20:51:49.316Z,60.31
2022-09-13T20:54:17.354Z,60.78
2022-09-13T20:56:46.317Z,60.63
2022-09-13T20:59:14.891Z,60.65
2022-09-13T21:01:44.455Z,60.30
2022-09-13T21:04:12.426Z,60.21
2022-09-13T21:07:01.581Z,60.36
2022-09-13T21:09:29.064Z,61.27
2022-09-13T21:11:56.928Z,61.53
2022-09-13T21:14:24.798Z,61.82
2022-09-13T21:16:54.361Z,60.14
2022-09-13T21:19:22.370Z,61.03
2022-09-13T21:21:50.191Z,61.10
2022-09-13T21:24:18.298Z,61.00
2022-09-13T21:26:46.025Z,61.28
2022-09-13T21:29:13.964Z,60.57
2022-09-13T21:31:42.099Z,59.99
2022-09-13T21:34:16.636Z,59.64
2022-09-13T21:36:45.168Z,59.88
2022-09-13T21:39:13.658Z,60.72
2022-09-13T21:41:42.358Z,60.27
2022-09-13T21:44:10.670Z,59.75
2022-09-13T21:46:40.293Z,60.22
2022-09-13T21:49:10.186Z,60.06
2022-09-13T21:51:41.482Z,58.96
2022-09-13T21:54:11.836Z,59.59
2022-09-13T21:56:41.242Z,60.04
2022-09-13T21:59:14.427Z,59.92
2022-09-13T22:01:43.871Z,59.98
2022-09-13T22:04:17.594Z,60.31
2022-09-13T22:06:48.109Z,60.37
2022-09-13T22:09:16.540Z,60.40
2022-09-13T22:11:47.312Z,59.97
2022-09-13T22:14:17.520Z,60.66
2022-09-13T22:16:49.913Z,61.75
2022-09-13T22:19:19.587Z,62.12
2022-09-13T22:21:50.349Z,62.74
2022-09-13T22:24:20.778Z,62.99
2022-09-13T22:26:50.228Z,62.67
2022-09-13T22:29:18.354Z,63.04
2022-09-13T22:31:48.183Z,63.26
2022-09-13T22:34:17.726Z,63.26
2022-09-13T22:36:46.049Z,62.76
2022-09-13T22:39:17.034Z,62.52
2022-09-13T22:41:45.787Z,63.17
2022-09-13T22:44:13.826Z,63.17
2022-09-13T22:46:43.406Z,63.81
2022-09-13T22:49:13.405Z,64.08
2022-09-13T22:51:41.404Z,64.19
2022-09-13T22:54:09.554Z,63.98
2022-09-13T22:56:38.894Z,64.79
2022-09-13T22:59:09.469Z,65.31
2022-09-13T23:01:38.348Z,65.65
2022-09-13T23:04:06.823Z,65.82
2022-09-13T23:06:35.705Z,66.31
2022-09-13T23:09:06.029Z,66.48
2022-09-13T23:11:35.906Z,66.75
2022-09-13T23:14:07.521Z,66.92
2022-09-13T23:16:36.923Z,66.96
2022-09-13T23:19:05.208Z,67.29
2022-09-13T23:21:35.407Z,67.50
2022-09-13T23:24:05.478Z,67.45
2022-09-13T23:26:34.071Z,67.79
2022-09-13T23:29:03.508Z,67.68
2022-09-13T23:31:35.051Z,68.21
2022-09-13T23:34:05.655Z,68.40
2022-09-13T23:36:38.218Z,68.79
2022-09-13T23:39:08.082Z,68.67
2022-09-13T23:41:36.291Z,68.75
2022-09-13T23:44:04.866Z,68.73
2022-09-13T23:46:34.259Z,68.52
2022-09-13T23:49:02.029Z,68.84
2022-09-13T23:51:29.917Z,69.52
2022-09-13T23:54:00.557Z,69.08
2022-09-13T23:56:30.572Z,69.64
2022-09-13T23:59:00.367Z,69.94
